sensor_id;sensor_type;location;lat;lon;timestamp;pressure;altitude;pressure_sealevel;temperature;humidity
70544;BME280;58097;48.364;-1.224;2023-05-19T00:00:55;100628.72;;;9.98;59.92
70544;BME280;58097;48.364;-1.224;2023-05-19T00:03:21;100623.34;;;9.97;59.86
70544;BME280;58097;48.364;-1.224;2023-05-19T00:05:47;100626.97;;;9.97;60.20
70544;BME280;58097;48.364;-1.224;2023-05-19T00:08:15;100626.97;;;9.97;60.17
70544;BME280;58097;48.364;-1.224;2023-05-19T00:10:41;100619.69;;;9.96;60.25
70544;BME280;58097;48.364;-1.224;2023-05-19T00:13:07;100621.59;;;9.96;60.08
70544;BME280;58097;48.364;-1.224;2023-05-19T00:15:33;100619.84;;;9.94;60.40
70544;BME280;58097;48.364;-1.224;2023-05-19T00:17:58;100622.75;;;9.93;60.06
70544;BME280;58097;48.364;-1.224;2023-05-19T00:20:23;100624.63;;;9.92;59.97
70544;BME280;58097;48.364;-1.224;2023-05-19T00:22:49;100629.28;;;9.92;60.22
70544;BME280;58097;48.364;-1.224;2023-05-19T00:25:15;100619.97;;;9.93;60.33
70544;BME280;58097;48.364;-1.224;2023-05-19T00:27:41;100620.25;;;9.90;60.36
70544;BME280;58097;48.364;-1.224;2023-05-19T00:30:06;100620.56;;;9.87;60.35
70544;BME280;58097;48.364;-1.224;2023-05-19T00:32:32;100622.56;;;9.85;60.38
70544;BME280;58097;48.364;-1.224;2023-05-19T00:34:58;100626.47;;;9.82;60.62
70544;BME280;58097;48.364;-1.224;2023-05-19T00:37:23;100612.94;;;9.79;60.77
70544;BME280;58097;48.364;-1.224;2023-05-19T00:39:49;100615.84;;;9.78;60.97
70544;BME280;58097;48.364;-1.224;2023-05-19T00:42:14;100614.09;;;9.77;61.09
70544;BME280;58097;48.364;-1.224;2023-05-19T00:44:40;100603.19;;;9.75;60.99
70544;BME280;58097;48.364;-1.224;2023-05-19T00:47:06;100609.72;;;9.74;60.95
70544;BME280;58097;48.364;-1.224;2023-05-19T00:49:32;100604.50;;;9.71;60.99
70544;BME280;58097;48.364;-1.224;2023-05-19T00:51:59;100613.94;;;9.69;61.42
70544;BME280;58097;48.364;-1.224;2023-05-19T00:54:25;100616.09;;;9.65;61.31
70544;BME280;58097;48.364;-1.224;2023-05-19T00:56:52;100617.09;;;9.64;61.49
70544;BME280;58097;48.364;-1.224;2023-05-19T00:59:18;100618.13;;;9.63;61.33
70544;BME280;58097;48.364;-1.224;2023-05-19T01:01:44;100615.50;;;9.61;61.50
70544;BME280;58097;48.364;-1.224;2023-05-19T01:04:14;100626.53;;;9.61;61.40
70544;BME280;58097;48.364;-1.224;2023-05-19T01:06:41;100621.28;;;9.58;61.41
70544;BME280;58097;48.364;-1.224;2023-05-19T01:09:06;100625.06;;;9.57;61.71
70544;BME280;58097;48.364;-1.224;2023-05-19T01:11:33;100627.09;;;9.55;61.87
70544;BME280;58097;48.364;-1.224;2023-05-19T01:13:58;100623.47;;;9.55;61.91
70544;BME280;58097;48.364;-1.224;2023-05-19T01:16:30;100615.28;;;9.53;61.58
70544;BME280;58097;48.364;-1.224;2023-05-19T01:32:48;100607.38;;;9.39;62.62
70544;BME280;58097;48.364;-1.224;2023-05-19T01:35:18;100608.13;;;9.41;63.81
70544;BME280;58097;48.364;-1.224;2023-05-19T01:37:45;100602.31;;;9.44;63.38
70544;BME280;58097;48.364;-1.224;2023-05-19T01:40:11;100603.94;;;9.47;63.40
70544;BME280;58097;48.364;-1.224;2023-05-19T01:42:37;100604.06;;;9.45;63.82
70544;BME280;58097;48.364;-1.224;2023-05-19T01:45:06;100602.19;;;9.46;63.46
70544;BME280;58097;48.364;-1.224;2023-05-19T01:47:35;100591.28;;;9.44;63.59
70544;BME280;58097;48.364;-1.224;2023-05-19T01:50:05;100598.84;;;9.42;63.60
70544;BME280;58097;48.364;-1.224;2023-05-19T01:52:31;100593.59;;;9.39;63.55
70544;BME280;58097;48.364;-1.224;2023-05-19T01:54:56;100598.38;;;9.37;64.01
70544;BME280;58097;48.364;-1.224;2023-05-19T02:00:24;100599.66;;;9.33;64.02
70544;BME280;58097;48.364;-1.224;2023-05-19T02:03:36;100596.16;;;9.31;64.63
70544;BME280;58097;48.364;-1.224;2023-05-19T02:05:54;100597.47;;;9.27;64.72
70544;BME280;58097;48.364;-1.224;2023-05-19T02:08:29;100591.19;;;9.25;64.61
70544;BME280;58097;48.364;-1.224;2023-05-19T02:11:34;100591.59;;;9.20;65.68
70544;BME280;58097;48.364;-1.224;2023-05-19T02:14:07;100588.09;;;9.18;66.37
70544;BME280;58097;48.364;-1.224;2023-05-19T02:16:35;100587.34;;;9.16;65.45
70544;BME280;58097;48.364;-1.224;2023-05-19T02:19:01;100587.22;;;9.18;66.09
70544;BME280;58097;48.364;-1.224;2023-05-19T02:21:26;100588.97;;;9.19;65.65
70544;BME280;58097;48.364;-1.224;2023-05-19T02:23:51;100592.47;;;9.21;65.68
70544;BME280;58097;48.364;-1.224;2023-05-19T02:26:17;100586.81;;;9.22;66.15
70544;BME280;58097;48.364;-1.224;2023-05-19T02:28:42;100581.16;;;9.24;66.10
70544;BME280;58097;48.364;-1.224;2023-05-19T02:31:08;100583.91;;;9.24;65.47
70544;BME280;58097;48.364;-1.224;2023-05-19T02:33:34;100581.28;;;9.22;65.38
70544;BME280;58097;48.364;-1.224;2023-05-19T02:36:00;100581.44;;;9.21;65.65
70544;BME280;58097;48.364;-1.224;2023-05-19T02:38:25;100579.69;;;9.20;65.85
70544;BME280;58097;48.364;-1.224;2023-05-19T02:40:51;100584.19;;;9.21;65.22
70544;BME280;58097;48.364;-1.224;2023-05-19T02:43:17;100591.72;;;9.19;65.52
70544;BME280;58097;48.364;-1.224;2023-05-19T02:45:42;100589.97;;;9.18;65.74
70544;BME280;58097;48.364;-1.224;2023-05-19T02:48:08;100592.75;;;9.18;65.98
70544;BME280;58097;48.364;-1.224;2023-05-19T02:50:33;100586.81;;;9.22;66.80
70544;BME280;58097;48.364;-1.224;2023-05-19T02:52:58;100586.28;;;9.28;66.87
70544;BME280;58097;48.364;-1.224;2023-05-19T02:55:24;100587.91;;;9.31;66.90
70544;BME280;58097;48.364;-1.224;2023-05-19T02:57:49;100589.66;;;9.32;67.14
70544;BME280;58097;48.364;-1.224;2023-05-19T03:00:15;100584.00;;;9.34;67.37
70544;BME280;58097;48.364;-1.224;2023-05-19T03:02:40;100580.50;;;9.31;67.05
70544;BME280;58097;48.364;-1.224;2023-05-19T03:05:08;100576.88;;;9.31;66.83
70544;BME280;58097;48.364;-1.224;2023-05-19T03:07:34;100583.66;;;9.27;66.73
70544;BME280;58097;48.364;-1.224;2023-05-19T03:09:59;100584.69;;;9.26;66.66
70544;BME280;58097;48.364;-1.224;2023-05-19T03:12:28;100580.13;;;9.25;66.53
70544;BME280;58097;48.364;-1.224;2023-05-19T03:14:53;100577.81;;;9.20;66.46
70544;BME280;58097;48.364;-1.224;2023-05-19T03:17:18;100569.66;;;9.19;66.21
70544;BME280;58097;48.364;-1.224;2023-05-19T03:19:44;100576.31;;;9.16;66.10
70544;BME280;58097;48.364;-1.224;2023-05-19T03:22:09;100580.22;;;9.14;66.32
70544;BME280;58097;48.364;-1.224;2023-05-19T03:24:34;100581.53;;;9.10;66.56
70544;BME280;58097;48.364;-1.224;2023-05-19T03:27:00;100578.16;;;9.06;66.36
70544;BME280;58097;48.364;-1.224;2023-05-19T03:29:26;100577.69;;;9.01;66.33
70544;BME280;58097;48.364;-1.224;2023-05-19T03:31:51;100574.44;;;8.96;66.43
70544;BME280;58097;48.364;-1.224;2023-05-19T03:34:17;100566.31;;;8.94;66.41
70544;BME280;58097;48.364;-1.224;2023-05-19T03:36:43;100564.56;;;8.93;66.36
70544;BME280;58097;48.364;-1.224;2023-05-19T03:39:09;100566.59;;;8.91;66.19
70544;BME280;58097;48.364;-1.224;2023-05-19T03:41:35;100561.22;;;8.90;66.06
70544;BME280;58097;48.364;-1.224;2023-05-19T03:44:00;100557.72;;;8.88;65.99
70544;BME280;58097;48.364;-1.224;2023-05-19T03:46:26;100562.34;;;8.87;65.81
70544;BME280;58097;48.364;-1.224;2023-05-19T03:48:51;100559.75;;;8.86;65.77
70544;BME280;58097;48.364;-1.224;2023-05-19T03:51:16;100555.09;;;8.86;66.10
70544;BME280;58097;48.364;-1.224;2023-05-19T03:53:42;100558.00;;;8.85;66.01
70544;BME280;58097;48.364;-1.224;2023-05-19T03:56:08;100549.00;;;8.83;65.87
70544;BME280;58097;48.364;-1.224;2023-05-19T03:58:37;100562.63;;;8.84;67.73
70544;BME280;58097;48.364;-1.224;2023-05-19T04:01:04;100556.25;;;8.84;68.70
70544;BME280;58097;48.364;-1.224;2023-05-19T04:03:30;100568.22;;;8.73;71.24
70544;BME280;58097;48.364;-1.224;2023-05-19T04:05:55;100562.97;;;8.70;70.40
70544;BME280;58097;48.364;-1.224;2023-05-19T04:08:21;100569.63;;;8.67;69.14
70544;BME280;58097;48.364;-1.224;2023-05-19T04:10:46;100568.72;;;8.67;68.25
70544;BME280;58097;48.364;-1.224;2023-05-19T04:13:11;100572.50;;;8.66;67.56
70544;BME280;58097;48.364;-1.224;2023-05-19T04:15:37;100579.88;;;8.65;67.31
70544;BME280;58097;48.364;-1.224;2023-05-19T04:18:02;100580.66;;;8.67;67.17
70544;BME280;58097;48.364;-1.224;2023-05-19T04:20:27;100574.22;;;8.67;66.94
70544;BME280;58097;48.364;-1.224;2023-05-19T04:22:53;100569.72;;;8.66;66.78
70544;BME280;58097;48.364;-1.224;2023-05-19T04:25:18;100580.00;;;8.64;66.62
70544;BME280;58097;48.364;-1.224;2023-05-19T04:27:44;100579.28;;;8.62;66.64
70544;BME280;58097;48.364;-1.224;2023-05-19T04:30:10;100579.53;;;8.59;66.73
70544;BME280;58097;48.364;-1.224;2023-05-19T04:32:36;100574.16;;;8.57;66.59
70544;BME280;58097;48.364;-1.224;2023-05-19T04:35:01;100579.94;;;8.54;65.96
70544;BME280;58097;48.364;-1.224;2023-05-19T04:37:27;100576.72;;;8.49;66.43
70544;BME280;58097;48.364;-1.224;2023-05-19T04:39:54;100577.13;;;8.45;66.43
70544;BME280;58097;48.364;-1.224;2023-05-19T04:42:19;100580.13;;;8.42;66.88
70544;BME280;58097;48.364;-1.224;2023-05-19T04:44:45;100570.13;;;8.41;67.21
70544;BME280;58097;48.364;-1.224;2023-05-19T04:47:13;100577.38;;;8.42;67.24
70544;BME280;58097;48.364;-1.224;2023-05-19T04:49:39;100580.13;;;8.42;67.05
70544;BME280;58097;48.364;-1.224;2023-05-19T04:52:09;100583.91;;;8.41;67.51
70544;BME280;58097;48.364;-1.224;2023-05-19T04:54:36;100582.16;;;8.40;67.38
70544;BME280;58097;48.364;-1.224;2023-05-19T04:57:02;100576.75;;;8.38;67.46
70544;BME280;58097;48.364;-1.224;2023-05-19T04:59:28;100583.78;;;8.42;67.24
70544;BME280;58097;48.364;-1.224;2023-05-19T05:01:53;100580.13;;;8.42;67.58
70544;BME280;58097;48.364;-1.224;2023-05-19T05:04:20;100588.13;;;8.45;67.49
70544;BME280;58097;48.364;-1.224;2023-05-19T05:06:45;100583.50;;;8.45;67.76
70544;BME280;58097;48.364;-1.224;2023-05-19T05:09:13;100578.72;;;8.47;67.85
70544;BME280;58097;48.364;-1.224;2023-05-19T05:11:39;100577.59;;;8.50;67.81
70544;BME280;58097;48.364;-1.224;2023-05-19T05:14:05;100581.56;;;8.57;68.09
70544;BME280;58097;48.364;-1.224;2023-05-19T05:16:31;100587.53;;;8.62;68.04
70544;BME280;58097;48.364;-1.224;2023-05-19T05:18:58;100590.91;;;8.65;67.88
70544;BME280;58097;48.364;-1.224;2023-05-19T05:21:24;100583.28;;;8.69;67.97
70544;BME280;58097;48.364;-1.224;2023-05-19T05:23:50;100591.00;;;8.75;68.57
70544;BME280;58097;48.364;-1.224;2023-05-19T05:26:18;100589.59;;;8.81;69.14
70544;BME280;58097;48.364;-1.224;2023-05-19T05:28:44;100592.06;;;8.84;69.33
70544;BME280;58097;48.364;-1.224;2023-05-19T05:31:09;100603.56;;;8.89;69.31
70544;BME280;58097;48.364;-1.224;2023-05-19T05:33:35;100592.13;;;8.93;69.44
70544;BME280;58097;48.364;-1.224;2023-05-19T05:36:00;100589.75;;;9.00;69.45
70544;BME280;58097;48.364;-1.224;2023-05-19T05:38:26;100593.84;;;9.06;69.85
70544;BME280;58097;48.364;-1.224;2023-05-19T05:40:51;100594.03;;;9.14;70.04
70544;BME280;58097;48.364;-1.224;2023-05-19T05:43:16;100596.69;;;9.25;69.91
70544;BME280;58097;48.364;-1.224;2023-05-19T05:45:42;100590.84;;;9.39;70.12
70544;BME280;58097;48.364;-1.224;2023-05-19T05:48:07;100594.09;;;9.54;70.36
70544;BME280;58097;48.364;-1.224;2023-05-19T05:50:33;100585.72;;;9.65;70.26
70544;BME280;58097;48.364;-1.224;2023-05-19T05:53:00;100592.28;;;9.74;70.09
70544;BME280;58097;48.364;-1.224;2023-05-19T05:55:26;100597.09;;;9.81;69.81
70544;BME280;58097;48.364;-1.224;2023-05-19T05:57:51;100594.25;;;9.92;70.37
70544;BME280;58097;48.364;-1.224;2023-05-19T06:00:17;100588.59;;;9.94;69.60
70544;BME280;58097;48.364;-1.224;2023-05-19T06:02:47;100590.78;;;10.00;69.39
70544;BME280;58097;48.364;-1.224;2023-05-19T06:05:13;100598.63;;;10.05;69.66
70544;BME280;58097;48.364;-1.224;2023-05-19T06:07:39;100590.66;;;10.11;69.73
70544;BME280;58097;48.364;-1.224;2023-05-19T06:10:06;100589.25;;;10.17;69.70
70544;BME280;58097;48.364;-1.224;2023-05-19T06:12:31;100597.00;;;10.23;70.16
70544;BME280;58097;48.364;-1.224;2023-05-19T06:14:57;100591.91;;;10.28;69.62
70544;BME280;58097;48.364;-1.224;2023-05-19T06:17:22;100592.91;;;10.37;71.19
70544;BME280;58097;48.364;-1.224;2023-05-19T06:19:47;100593.53;;;10.50;70.25
70544;BME280;58097;48.364;-1.224;2023-05-19T06:22:13;100596.28;;;10.60;69.68
70544;BME280;58097;48.364;-1.224;2023-05-19T06:24:38;100590.19;;;10.75;69.84
70544;BME280;58097;48.364;-1.224;2023-05-19T06:27:04;100606.03;;;10.93;70.25
70544;BME280;58097;48.364;-1.224;2023-05-19T06:29:29;100597.16;;;11.08;69.98
70544;BME280;58097;48.364;-1.224;2023-05-19T06:31:54;100596.69;;;11.32;70.70
70544;BME280;58097;48.364;-1.224;2023-05-19T06:34:20;100597.59;;;11.60;70.17
70544;BME280;58097;48.364;-1.224;2023-05-19T06:36:45;100592.28;;;11.86;70.62
70544;BME280;58097;48.364;-1.224;2023-05-19T06:39:11;100581.09;;;12.05;70.14
70544;BME280;58097;48.364;-1.224;2023-05-19T06:41:36;100585.81;;;12.23;69.85
70544;BME280;58097;48.364;-1.224;2023-05-19T06:44:03;100581.16;;;12.41;70.19
70544;BME280;58097;48.364;-1.224;2023-05-19T06:46:28;100585.69;;;12.60;69.59
70544;BME280;58097;48.364;-1.224;2023-05-19T06:48:53;100588.00;;;12.82;69.89
70544;BME280;58097;48.364;-1.224;2023-05-19T06:51:19;100591.75;;;12.99;70.67
70544;BME280;58097;48.364;-1.224;2023-05-19T06:53:47;100588.25;;;13.15;69.13
70544;BME280;58097;48.364;-1.224;2023-05-19T06:56:13;100594.38;;;13.36;69.17
70544;BME280;58097;48.364;-1.224;2023-05-19T06:58:40;100584.72;;;13.48;68.70
70544;BME280;58097;48.364;-1.224;2023-05-19T07:01:05;100592.28;;;13.64;69.27
70544;BME280;58097;48.364;-1.224;2023-05-19T07:03:30;100584.03;;;13.80;68.69
70544;BME280;58097;48.364;-1.224;2023-05-19T07:05:56;100585.00;;;13.97;68.75
70544;BME280;58097;48.364;-1.224;2023-05-19T07:08:21;100589.72;;;14.13;68.85
70544;BME280;58097;48.364;-1.224;2023-05-19T07:10:47;100595.38;;;14.29;68.60
70544;BME280;58097;48.364;-1.224;2023-05-19T07:13:12;100592.25;;;14.40;68.46
70544;BME280;58097;48.364;-1.224;2023-05-19T07:15:38;100590.25;;;14.59;67.79
70544;BME280;58097;48.364;-1.224;2023-05-19T07:18:03;100592.34;;;14.73;68.54
70544;BME280;58097;48.364;-1.224;2023-05-19T07:20:29;100585.78;;;14.90;68.01
70544;BME280;58097;48.364;-1.224;2023-05-19T07:22:54;100592.25;;;15.07;67.32
70544;BME280;58097;48.364;-1.224;2023-05-19T07:25:19;100589.97;;;15.10;66.31
70544;BME280;58097;48.364;-1.224;2023-05-19T07:27:45;100593.94;;;15.00;65.78
70544;BME280;58097;48.364;-1.224;2023-05-19T07:30:11;100593.44;;;14.96;65.98
70544;BME280;58097;48.364;-1.224;2023-05-19T07:32:36;100593.09;;;14.99;66.93
70544;BME280;58097;48.364;-1.224;2023-05-19T07:35:02;100586.81;;;15.22;67.91
70544;BME280;58097;48.364;-1.224;2023-05-19T07:37:27;100593.06;;;15.32;67.11
70544;BME280;58097;48.364;-1.224;2023-05-19T07:39:53;100591.88;;;15.42;66.79
70544;BME280;58097;48.364;-1.224;2023-05-19T07:42:18;100582.63;;;15.50;65.83
70544;BME280;58097;48.364;-1.224;2023-05-19T07:44:43;100587.31;;;15.49;66.27
70544;BME280;58097;48.364;-1.224;2023-05-19T07:47:09;100595.84;;;15.56;66.25
70544;BME280;58097;48.364;-1.224;2023-05-19T07:49:34;100587.84;;;15.69;66.05
70544;BME280;58097;48.364;-1.224;2023-05-19T07:52:00;100588.81;;;15.85;65.74
70544;BME280;58097;48.364;-1.224;2023-05-19T07:54:25;100585.31;;;15.99;66.90
70544;BME280;58097;48.364;-1.224;2023-05-19T07:56:50;100586.09;;;16.16;66.21
70544;BME280;58097;48.364;-1.224;2023-05-19T07:59:16;100595.63;;;16.29;65.79
70544;BME280;58097;48.364;-1.224;2023-05-19T08:01:41;100593.16;;;16.34;64.75
70544;BME280;58097;48.364;-1.224;2023-05-19T08:04:07;100594.91;;;16.35;64.83
70544;BME280;58097;48.364;-1.224;2023-05-19T08:06:32;100590.94;;;16.30;65.35
70544;BME280;58097;48.364;-1.224;2023-05-19T08:08:57;100591.25;;;16.35;64.77
70544;BME280;58097;48.364;-1.224;2023-05-19T08:11:23;100594.47;;;16.47;65.44
70544;BME280;58097;48.364;-1.224;2023-05-19T08:13:48;100587.94;;;16.62;65.60
70544;BME280;58097;48.364;-1.224;2023-05-19T08:16:14;100587.03;;;16.78;65.69
70544;BME280;58097;48.364;-1.224;2023-05-19T08:18:40;100586.94;;;16.86;65.28
70544;BME280;58097;48.364;-1.224;2023-05-19T08:21:05;100580.34;;;17.02;65.01
70544;BME280;58097;48.364;-1.224;2023-05-19T08:23:31;100581.47;;;17.16;65.06
70544;BME280;58097;48.364;-1.224;2023-05-19T08:25:57;100569.47;;;17.30;64.64
70544;BME280;58097;48.364;-1.224;2023-05-19T08:28:22;100574.63;;;17.41;64.68
70544;BME280;58097;48.364;-1.224;2023-05-19T08:30:49;100579.97;;;17.28;63.16
70544;BME280;58097;48.364;-1.224;2023-05-19T08:33:14;100573.69;;;17.26;62.78
70544;BME280;58097;48.364;-1.224;2023-05-19T08:35:40;100569.94;;;17.19;63.93
70544;BME280;58097;48.364;-1.224;2023-05-19T08:38:05;100575.63;;;17.25;63.68
70544;BME280;58097;48.364;-1.224;2023-05-19T08:40:32;100575.19;;;17.37;63.79
70544;BME280;58097;48.364;-1.224;2023-05-19T08:42:58;100573.09;;;17.53;63.28
70544;BME280;58097;48.364;-1.224;2023-05-19T08:45:25;100567.03;;;17.64;63.08
70544;BME280;58097;48.364;-1.224;2023-05-19T08:47:51;100565.66;;;17.46;61.31
70544;BME280;58097;48.364;-1.224;2023-05-19T08:50:23;100572.78;;;17.48;61.83
70544;BME280;58097;48.364;-1.224;2023-05-19T08:58:02;100559.31;;;17.52;62.26
70544;BME280;58097;48.364;-1.224;2023-05-19T09:00:28;100553.38;;;17.32;60.39
70544;BME280;58097;48.364;-1.224;2023-05-19T09:02:54;100554.78;;;17.36;61.33
70544;BME280;58097;48.364;-1.224;2023-05-19T09:05:21;100558.53;;;17.58;62.91
70544;BME280;58097;48.364;-1.224;2023-05-19T09:07:47;100543.31;;;17.60;61.38
70544;BME280;58097;48.364;-1.224;2023-05-19T09:10:13;100545.13;;;17.53;60.94
70544;BME280;58097;48.364;-1.224;2023-05-19T09:12:45;100532.63;;;17.64;62.04
70544;BME280;58097;48.364;-1.224;2023-05-19T09:15:12;100527.34;;;17.84;61.46
70544;BME280;58097;48.364;-1.224;2023-05-19T09:17:40;100531.00;;;17.84;60.59
70544;BME280;58097;48.364;-1.224;2023-05-19T09:20:05;100526.38;;;17.91;62.09
70544;BME280;58097;48.364;-1.224;2023-05-19T09:22:40;100529.56;;;18.03;60.96
70544;BME280;58097;48.364;-1.224;2023-05-19T09:25:17;100522.72;;;18.06;59.45
70544;BME280;58097;48.364;-1.224;2023-05-19T09:27:42;100523.16;;;18.24;60.70
70544;BME280;58097;48.364;-1.224;2023-05-19T09:30:07;100526.66;;;18.47;60.85
70544;BME280;58097;48.364;-1.224;2023-05-19T09:32:34;100532.56;;;18.52;57.85
70544;BME280;58097;48.364;-1.224;2023-05-19T09:35:01;100533.78;;;18.50;58.93
70544;BME280;58097;48.364;-1.224;2023-05-19T09:37:27;100521.72;;;18.64;59.47
70544;BME280;58097;48.364;-1.224;2023-05-19T09:39:53;100532.38;;;18.97;60.37
70544;BME280;58097;48.364;-1.224;2023-05-19T09:42:25;100525.78;;;19.04;58.36
70544;BME280;58097;48.364;-1.224;2023-05-19T09:45:01;100530.97;;;19.07;57.63
70544;BME280;58097;48.364;-1.224;2023-05-19T09:47:26;100526.63;;;19.05;56.51
70544;BME280;58097;48.364;-1.224;2023-05-19T09:49:52;100523.84;;;19.05;57.99
70544;BME280;58097;48.364;-1.224;2023-05-19T09:52:18;100517.44;;;19.11;57.39
70544;BME280;58097;48.364;-1.224;2023-05-19T09:54:43;100527.06;;;19.30;56.57
70544;BME280;58097;48.364;-1.224;2023-05-19T09:57:09;100515.22;;;19.06;55.32
70544;BME280;58097;48.364;-1.224;2023-05-19T09:59:35;100521.25;;;19.31;58.42
70544;BME280;58097;48.364;-1.224;2023-05-19T10:02:03;100522.16;;;19.60;58.54
70544;BME280;58097;48.364;-1.224;2023-05-19T10:04:29;100513.25;;;19.84;58.37
70544;BME280;58097;48.364;-1.224;2023-05-19T10:06:56;100515.06;;;19.98;58.19
70544;BME280;58097;48.364;-1.224;2023-05-19T10:09:26;100514.72;;;20.21;56.28
70544;BME280;58097;48.364;-1.224;2023-05-19T10:11:53;100508.72;;;20.24;56.02
70544;BME280;58097;48.364;-1.224;2023-05-19T10:14:24;100513.41;;;20.10;52.96
70544;BME280;58097;48.364;-1.224;2023-05-19T10:16:51;100504.81;;;19.77;52.68
70544;BME280;58097;48.364;-1.224;2023-05-19T10:19:19;100499.41;;;19.76;54.62
70544;BME280;58097;48.364;-1.224;2023-05-19T10:21:46;100502.94;;;19.91;54.79
70544;BME280;58097;48.364;-1.224;2023-05-19T10:24:11;100503.44;;;20.01;54.42
70544;BME280;58097;48.364;-1.224;2023-05-19T10:26:39;100498.31;;;20.18;54.92
70544;BME280;58097;48.364;-1.224;2023-05-19T10:29:07;100507.78;;;20.10;52.38
70544;BME280;58097;48.364;-1.224;2023-05-19T10:31:33;100499.84;;;20.21;54.85
70544;BME280;58097;48.364;-1.224;2023-05-19T10:34:11;100505.09;;;20.37;55.10
70544;BME280;58097;48.364;-1.224;2023-05-19T10:36:43;100500.59;;;20.42;54.09
70544;BME280;58097;48.364;-1.224;2023-05-19T10:39:24;100506.28;;;20.56;54.79
70544;BME280;58097;48.364;-1.224;2023-05-19T10:42:14;100503.25;;;20.64;53.03
70544;BME280;58097;48.364;-1.224;2023-05-19T10:47:24;100497.22;;;20.67;53.88
70544;BME280;58097;48.364;-1.224;2023-05-19T10:49:53;100496.34;;;20.60;53.12
70544;BME280;58097;48.364;-1.224;2023-05-19T10:52:20;100503.03;;;20.59;50.88
70544;BME280;58097;48.364;-1.224;2023-05-19T10:54:47;100501.53;;;20.69;52.85
70544;BME280;58097;48.364;-1.224;2023-05-19T10:57:16;100496.78;;;20.70;53.64
70544;BME280;58097;48.364;-1.224;2023-05-19T10:59:42;100490.94;;;20.65;51.47
70544;BME280;58097;48.364;-1.224;2023-05-19T11:02:09;100484.88;;;20.61;52.00
70544;BME280;58097;48.364;-1.224;2023-05-19T11:07:03;100477.94;;;20.51;49.40
70544;BME280;58097;48.364;-1.224;2023-05-19T11:09:29;100481.41;;;20.53;50.64
70544;BME280;58097;48.364;-1.224;2023-05-19T11:12:02;100475.59;;;20.67;52.18
70544;BME280;58097;48.364;-1.224;2023-05-19T11:14:28;100472.81;;;20.67;50.14
70544;BME280;58097;48.364;-1.224;2023-05-19T11:16:57;100473.50;;;20.83;51.18
70544;BME280;58097;48.364;-1.224;2023-05-19T11:19:27;100475.81;;;20.66;49.80
70544;BME280;58097;48.364;-1.224;2023-05-19T11:21:53;100470.44;;;20.71;48.43
70544;BME280;58097;48.364;-1.224;2023-05-19T11:26:56;100463.34;;;20.82;50.82
70544;BME280;58097;48.364;-1.224;2023-05-19T11:29:22;100466.13;;;20.88;51.26
70544;BME280;58097;48.364;-1.224;2023-05-19T11:31:48;100474.75;;;20.80;51.14
70544;BME280;58097;48.364;-1.224;2023-05-19T11:34:14;100476.47;;;20.81;51.99
70544;BME280;58097;48.364;-1.224;2023-05-19T11:36:40;100471.75;;;20.82;51.68
70544;BME280;58097;48.364;-1.224;2023-05-19T11:39:07;100473.91;;;20.93;50.15
70544;BME280;58097;48.364;-1.224;2023-05-19T11:41:37;100472.19;;;20.92;50.39
70544;BME280;58097;48.364;-1.224;2023-05-19T11:44:08;100463.09;;;20.96;49.13
70544;BME280;58097;48.364;-1.224;2023-05-19T11:46:33;100463.75;;;20.98;48.70
70544;BME280;58097;48.364;-1.224;2023-05-19T11:48:59;100461.56;;;20.81;49.24
70544;BME280;58097;48.364;-1.224;2023-05-19T11:51:26;100454.91;;;20.88;49.74
70544;BME280;58097;48.364;-1.224;2023-05-19T11:53:52;100459.63;;;20.81;47.81
70544;BME280;58097;48.364;-1.224;2023-05-19T11:56:18;100455.72;;;20.69;47.54
70544;BME280;58097;48.364;-1.224;2023-05-19T11:58:45;100449.03;;;20.77;48.74
70544;BME280;58097;48.364;-1.224;2023-05-19T12:01:11;100441.72;;;20.89;47.42
70544;BME280;58097;48.364;-1.224;2023-05-19T12:03:36;100441.50;;;21.17;49.70
70544;BME280;58097;48.364;-1.224;2023-05-19T12:06:02;100440.63;;;21.29;48.61
70544;BME280;58097;48.364;-1.224;2023-05-19T12:08:28;100442.78;;;21.34;47.38
70544;BME280;58097;48.364;-1.224;2023-05-19T12:10:53;100435.44;;;21.26;47.44
70544;BME280;58097;48.364;-1.224;2023-05-19T12:13:20;100428.50;;;21.22;47.68
70544;BME280;58097;48.364;-1.224;2023-05-19T12:15:49;100437.16;;;21.34;48.32
70544;BME280;58097;48.364;-1.224;2023-05-19T12:18:14;100439.31;;;21.45;47.92
70544;BME280;58097;48.364;-1.224;2023-05-19T12:20:40;100439.69;;;21.62;48.33
70544;BME280;58097;48.364;-1.224;2023-05-19T12:23:05;100434.72;;;21.71;49.04
70544;BME280;58097;48.364;-1.224;2023-05-19T12:25:31;100433.63;;;21.72;48.80
70544;BME280;58097;48.364;-1.224;2023-05-19T12:27:58;100434.31;;;21.54;47.86
70544;BME280;58097;48.364;-1.224;2023-05-19T12:30:25;100432.84;;;21.45;46.27
70544;BME280;58097;48.364;-1.224;2023-05-19T12:32:53;100428.06;;;21.45;47.31
70544;BME280;58097;48.364;-1.224;2023-05-19T12:35:19;100432.78;;;21.58;49.27
70544;BME280;58097;48.364;-1.224;2023-05-19T12:37:44;100422.81;;;21.62;48.39
70544;BME280;58097;48.364;-1.224;2023-05-19T12:40:14;100435.00;;;21.36;46.99
70544;BME280;58097;48.364;-1.224;2023-05-19T12:42:43;100428.94;;;21.46;47.07
70544;BME280;58097;48.364;-1.224;2023-05-19T12:45:09;100420.09;;;21.42;46.59
70544;BME280;58097;48.364;-1.224;2023-05-19T12:47:35;100424.78;;;21.61;48.27
70544;BME280;58097;48.364;-1.224;2023-05-19T12:50:07;100415.66;;;21.66;48.23
70544;BME280;58097;48.364;-1.224;2023-05-19T12:52:45;100410.97;;;21.53;46.68
70544;BME280;58097;48.364;-1.224;2023-05-19T12:55:11;100407.31;;;21.46;48.14
70544;BME280;58097;48.364;-1.224;2023-05-19T12:57:38;100402.09;;;21.50;47.14
70544;BME280;58097;48.364;-1.224;2023-05-19T13:02:33;100395.19;;;21.39;46.80
70544;BME280;58097;48.364;-1.224;2023-05-19T13:04:59;100405.94;;;21.62;48.35
70544;BME280;58097;48.364;-1.224;2023-05-19T13:07:24;100395.94;;;21.79;49.23
70544;BME280;58097;48.364;-1.224;2023-05-19T13:09:50;100395.91;;;21.86;47.10
70544;BME280;58097;48.364;-1.224;2023-05-19T13:12:15;100390.75;;;21.76;44.79
70544;BME280;58097;48.364;-1.224;2023-05-19T13:14:40;100390.31;;;21.79;46.98